Air Quality Table

TIMESTAMP NO2 SO2 O3 PM10 PM2.5 TEMP HUM AIRPRES WS WD NO
2022-01-24 18:00 10.85 µg/m3 1.45 µg/m3 63.92 µg/m3 22.04 µg/m3 6.55 µg/m3 10.6 °C 85.45 % 1,017.89 mbar 1.89 m/s 193.64 Deg 0.73 µg/m3
2022-01-24 17:00 14.32 µg/m3 1.49 µg/m3 68.35 µg/m3 14.48 µg/m3 4.45 µg/m3 11.42 °C 72.57 % 1,017.46 mbar 3.02 m/s 16.2 Deg 2.85 µg/m3
2022-01-24 16:00 10.93 µg/m3 1.72 µg/m3 72.62 µg/m3 14.89 µg/m3 5.74 µg/m3 11.88 °C 68.7 % 1,017.34 mbar 3.78 m/s 6.28 Deg 2.75 µg/m3
2022-01-24 15:00 15.85 µg/m3 1.67 µg/m3 70.92 µg/m3 11.47 µg/m3 5.99 µg/m3 12.18 °C 67.76 % 1,017.08 mbar 4.02 m/s 355.33 Deg 3.33 µg/m3
2022-01-24 14:00 10.51 µg/m3 1.68 µg/m3 75.38 µg/m3 14.46 µg/m3 6.36 µg/m3 12.26 °C 68.24 % 1,017.37 mbar 3.1 m/s 183.23 Deg 2.74 µg/m3
2022-01-24 13:00 9.84 µg/m3 1.8 µg/m3 75.99 µg/m3 19.12 µg/m3 7.09 µg/m3 12.94 °C 61.54 % 1,017.93 mbar 3.89 m/s 265.2 Deg 2.81 µg/m3
2022-01-24 12:00 10.5 µg/m3 1.83 µg/m3 75.26 µg/m3 26.46 µg/m3 9.88 µg/m3 12.66 °C 61.86 % 1,018.66 mbar 3.65 m/s 92.25 Deg 2.69 µg/m3
2022-01-24 11:00 12.76 µg/m3 1.98 µg/m3 70.54 µg/m3 33.64 µg/m3 13.44 µg/m3 12.75 °C 61.97 % 1,019.00 mbar 3.63 m/s 264.8 Deg 4.18 µg/m3
2022-01-24 10:00 37.97 µg/m3 2.31 µg/m3 43.73 µg/m3 39.89 µg/m3 17.78 µg/m3 12.39 °C 58.85 % 1,018.84 mbar 2.71 m/s 332.72 Deg 19.37 µg/m3
2022-01-24 09:00 70.85 µg/m3 2.78 µg/m3 12.37 µg/m3 33.59 µg/m3 10.58 µg/m3 10.89 °C 62.71 % 1,018.77 mbar 1.33 m/s 317.4 Deg 55.51 µg/m3
2022-01-24 08:00 71.32 µg/m3 2.31 µg/m3 12.19 µg/m3 23.94 µg/m3 5.98 µg/m3 10.28 °C 65.03 % 1,018.64 mbar 2.16 m/s 334 Deg 29.29 µg/m3
2022-01-24 07:00 73.19 µg/m3 2.24 µg/m3 6.56 µg/m3 10.25 µg/m3 5.48 µg/m3 9.75 °C 66.12 % 1,018.56 mbar 1.84 m/s 339.88 Deg 23.09 µg/m3
2022-01-24 06:00 26.19 µg/m3 1.88 µg/m3 44.95 µg/m3 8.34 µg/m3 8.65 µg/m3 9.96 °C 53.36 % 1,018.51 mbar 1.63 m/s 166.98 Deg 3.57 µg/m3
2022-01-24 05:00 10.42 µg/m3 1.64 µg/m3 65.37 µg/m3 8.13 µg/m3 11.27 µg/m3 10.21 °C 59.5 % 1,018.77 mbar 1.39 m/s 20.78 Deg 0.81 µg/m3
2022-01-24 04:00 7.14 µg/m3 1.7 µg/m3 71.8 µg/m3 10.73 µg/m3 12.92 µg/m3 10.35 °C 58.37 % 1,019.01 mbar 1.39 m/s 30.85 Deg 0.36 µg/m3
2022-01-24 03:00 3 µg/m3 1.84 µg/m3 78.69 µg/m3 13.27 µg/m3 17.91 µg/m3 10.78 °C 56.12 % 1,019.33 mbar 1.67 m/s 32.57 Deg 0.22 µg/m3
2022-01-24 02:00 2.41 µg/m3 1.65 µg/m3 80.48 µg/m3 17 µg/m3 16.71 µg/m3 10.84 °C 65.34 % 1,019.54 mbar 1.69 m/s 111.43 Deg 0.22 µg/m3
2022-01-24 01:00 3.09 µg/m3 1.83 µg/m3 83.28 µg/m3 19.02 µg/m3 7.52 µg/m3 10.97 °C 67.25 % 1,019.62 mbar 1.91 m/s 175.12 Deg 0.21 µg/m3
2022-01-24 00:00 8.57 µg/m3 1.77 µg/m3 76.44 µg/m3 16.27 µg/m3 3.23 µg/m3 11.38 °C 65.87 % 1,019.69 mbar 1.97 m/s 234.23 Deg 0.52 µg/m3
2022-01-23 23:00 17.13 µg/m3 1.64 µg/m3 60.09 µg/m3 23.55 µg/m3 2.23 µg/m3 11.08 °C 65.1 % 1,019.52 mbar 1.24 m/s 315.07 Deg 1.24 µg/m3
2022-01-23 22:00 20.61 µg/m3 1.86 µg/m3 56.13 µg/m3 21.95 µg/m3 1.13 µg/m3 11.01 °C 66.35 % 1,019.68 mbar 1.56 m/s 307.52 Deg 1.38 µg/m3
2022-01-23 21:00 23.25 µg/m3 1.6 µg/m3 55.1 µg/m3 29.37 µg/m3 1.43 µg/m3 11.02 °C 64.87 % 1,019.76 mbar 1.57 m/s 293.33 Deg 1.83 µg/m3
2022-01-23 20:00 30.7 µg/m3 1.88 µg/m3 49.5 µg/m3 19.06 µg/m3 2.85 µg/m3 11.01 °C 62.99 % 1,019.87 mbar 1.76 m/s 297.7 Deg 2.75 µg/m3

It is to be noted that the data is provisional and subject to quality assurance procedures. For validated data kindly refer your request to contact.air@era.org.mt